sensor_id;sensor_type;location;lat;lon;timestamp;pressure;altitude;pressure_sealevel;temperature;humidity
79703;BME280;69172;52.352;5.006;2024-03-25T00:00:05;100777.00;;;6.10;100.00
79703;BME280;69172;52.352;5.006;2024-03-25T00:02:36;100775.00;;;6.06;100.00
79703;BME280;69172;52.352;5.006;2024-03-25T00:05:01;100774.56;;;5.99;100.00
79703;BME280;69172;52.352;5.006;2024-03-25T00:07:26;100767.56;;;5.97;100.00
79703;BME280;69172;52.352;5.006;2024-03-25T00:09:52;100771.88;;;5.98;100.00
79703;BME280;69172;52.352;5.006;2024-03-25T00:12:20;100780.22;;;5.95;100.00
79703;BME280;69172;52.352;5.006;2024-03-25T00:14:45;100781.22;;;5.97;100.00
79703;BME280;69172;52.352;5.006;2024-03-25T00:17:11;100775.78;;;5.93;100.00
79703;BME280;69172;52.352;5.006;2024-03-25T00:19:36;100767.78;;;5.88;100.00
79703;BME280;69172;52.352;5.006;2024-03-25T00:22:02;100776.88;;;5.96;100.00
79703;BME280;69172;52.352;5.006;2024-03-25T00:24:29;100771.25;;;6.01;100.00
79703;BME280;69172;52.352;5.006;2024-03-25T00:26:54;100777.13;;;5.99;100.00
79703;BME280;69172;52.352;5.006;2024-03-25T00:29:19;100776.88;;;5.96;100.00
79703;BME280;69172;52.352;5.006;2024-03-25T00:31:45;100777.91;;;5.87;100.00
79703;BME280;69172;52.352;5.006;2024-03-25T00:34:10;100772.53;;;5.84;100.00
79703;BME280;69172;52.352;5.006;2024-03-25T00:36:36;100766.84;;;5.76;100.00
79703;BME280;69172;52.352;5.006;2024-03-25T00:39:02;100767.75;;;5.77;100.00
79703;BME280;69172;52.352;5.006;2024-03-25T00:41:28;100764.09;;;5.73;100.00
79703;BME280;69172;52.352;5.006;2024-03-25T00:43:54;100763.66;;;5.67;100.00
79703;BME280;69172;52.352;5.006;2024-03-25T00:46:19;100766.97;;;5.66;100.00
79703;BME280;69172;52.352;5.006;2024-03-25T00:48:44;100769.41;;;5.65;100.00
79703;BME280;69172;52.352;5.006;2024-03-25T00:51:10;100761.53;;;5.62;100.00
79703;BME280;69172;52.352;5.006;2024-03-25T00:53:36;100756.97;;;5.58;100.00
79703;BME280;69172;52.352;5.006;2024-03-25T00:56:03;100759.66;;;5.59;100.00
79703;BME280;69172;52.352;5.006;2024-03-25T00:58:28;100761.63;;;5.63;100.00
79703;BME280;69172;52.352;5.006;2024-03-25T01:00:53;100766.19;;;5.67;100.00
79703;BME280;69172;52.352;5.006;2024-03-25T01:03:19;100767.41;;;5.72;100.00
79703;BME280;69172;52.352;5.006;2024-03-25T01:05:44;100763.44;;;5.64;100.00
79703;BME280;69172;52.352;5.006;2024-03-25T01:08:09;100773.41;;;5.61;100.00
79703;BME280;69172;52.352;5.006;2024-03-25T01:10:37;100766.19;;;5.56;100.00
79703;BME280;69172;52.352;5.006;2024-03-25T01:13:02;100766.50;;;5.49;100.00
79703;BME280;69172;52.352;5.006;2024-03-25T01:15:27;100766.94;;;5.55;100.00
79703;BME280;69172;52.352;5.006;2024-03-25T01:17:53;100774.41;;;5.52;100.00
79703;BME280;69172;52.352;5.006;2024-03-25T01:20:19;100777.28;;;5.56;100.00
79703;BME280;69172;52.352;5.006;2024-03-25T01:22:44;100769.28;;;5.52;100.00
79703;BME280;69172;52.352;5.006;2024-03-25T01:25:11;100769.06;;;5.49;100.00
79703;BME280;69172;52.352;5.006;2024-03-25T01:27:36;100767.81;;;5.43;100.00
79703;BME280;69172;52.352;5.006;2024-03-25T01:30:02;100768.13;;;5.36;100.00
79703;BME280;69172;52.352;5.006;2024-03-25T01:32:30;100782.97;;;5.30;100.00
79703;BME280;69172;52.352;5.006;2024-03-25T01:34:57;100785.94;;;5.25;100.00
79703;BME280;69172;52.352;5.006;2024-03-25T01:37:23;100774.91;;;5.24;100.00
79703;BME280;69172;52.352;5.006;2024-03-25T01:39:48;100771.97;;;5.20;100.00
79703;BME280;69172;52.352;5.006;2024-03-25T01:42:14;100775.31;;;5.19;100.00
79703;BME280;69172;52.352;5.006;2024-03-25T01:44:39;100781.13;;;5.39;100.00
79703;BME280;69172;52.352;5.006;2024-03-25T01:47:04;100780.66;;;5.33;100.00
79703;BME280;69172;52.352;5.006;2024-03-25T01:49:30;100775.13;;;5.39;100.00
79703;BME280;69172;52.352;5.006;2024-03-25T01:51:58;100772.47;;;5.37;100.00
79703;BME280;69172;52.352;5.006;2024-03-25T01:54:26;100774.91;;;5.36;100.00
79703;BME280;69172;52.352;5.006;2024-03-25T01:56:52;100775.13;;;5.39;100.00
79703;BME280;69172;52.352;5.006;2024-03-25T01:59:28;100780.22;;;5.39;100.00
79703;BME280;69172;52.352;5.006;2024-03-25T02:01:53;100780.47;;;5.42;100.00
79703;BME280;69172;52.352;5.006;2024-03-25T02:04:26;100777.03;;;5.41;100.00
79703;BME280;69172;52.352;5.006;2024-03-25T02:06:55;100777.13;;;5.31;100.00
79703;BME280;69172;52.352;5.006;2024-03-25T02:09:24;100781.22;;;5.29;100.00
79703;BME280;69172;52.352;5.006;2024-03-25T02:11:53;100789.53;;;5.27;100.00
79703;BME280;69172;52.352;5.006;2024-03-25T02:14:21;100785.84;;;5.23;100.00
79703;BME280;69172;52.352;5.006;2024-03-25T02:16:48;100778.72;;;5.19;100.00
79703;BME280;69172;52.352;5.006;2024-03-25T02:19:15;100784.06;;;5.22;100.00
79703;BME280;69172;52.352;5.006;2024-03-25T02:21:42;100782.16;;;5.20;100.00
79703;BME280;69172;52.352;5.006;2024-03-25T02:24:09;100782.59;;;5.14;100.00
79703;BME280;69172;52.352;5.006;2024-03-25T02:26:35;100786.47;;;5.09;100.00
79703;BME280;69172;52.352;5.006;2024-03-25T02:29:01;100788.00;;;5.07;100.00
79703;BME280;69172;52.352;5.006;2024-03-25T02:31:26;100785.88;;;5.02;100.00
79703;BME280;69172;52.352;5.006;2024-03-25T02:33:52;100786.66;;;5.01;100.00
79703;BME280;69172;52.352;5.006;2024-03-25T02:36:18;100788.84;;;4.96;100.00
79703;BME280;69172;52.352;5.006;2024-03-25T02:38:43;100781.31;;;4.98;100.00
79703;BME280;69172;52.352;5.006;2024-03-25T02:41:20;100785.66;;;4.99;100.00
79703;BME280;69172;52.352;5.006;2024-03-25T02:43:48;100778.91;;;4.99;100.00
79703;BME280;69172;52.352;5.006;2024-03-25T02:46:13;100779.13;;;5.02;100.00
79703;BME280;69172;52.352;5.006;2024-03-25T02:48:39;100768.94;;;5.02;100.00
79703;BME280;69172;52.352;5.006;2024-03-25T02:51:04;100772.72;;;5.07;100.00
79703;BME280;69172;52.352;5.006;2024-03-25T02:53:29;100771.94;;;5.08;100.00
79703;BME280;69172;52.352;5.006;2024-03-25T02:55:55;100764.28;;;5.08;100.00
79703;BME280;69172;52.352;5.006;2024-03-25T02:58:20;100765.97;;;5.08;100.00
79703;BME280;69172;52.352;5.006;2024-03-25T03:00:46;100770.94;;;5.06;100.00
79703;BME280;69172;52.352;5.006;2024-03-25T03:03:13;100762.19;;;5.03;100.00
79703;BME280;69172;52.352;5.006;2024-03-25T03:05:38;100761.59;;;4.95;100.00
79703;BME280;69172;52.352;5.006;2024-03-25T03:08:04;100761.16;;;4.89;100.00
79703;BME280;69172;52.352;5.006;2024-03-25T03:10:29;100760.44;;;4.80;100.00
79703;BME280;69172;52.352;5.006;2024-03-25T03:12:55;100757.16;;;4.71;100.00
79703;BME280;69172;52.352;5.006;2024-03-25T03:15:20;100755.69;;;4.63;100.00
79703;BME280;69172;52.352;5.006;2024-03-25T03:17:51;100761.75;;;4.53;100.00
79703;BME280;69172;52.352;5.006;2024-03-25T03:20:16;100749.03;;;4.43;100.00
79703;BME280;69172;52.352;5.006;2024-03-25T03:22:42;100754.44;;;4.36;100.00
79703;BME280;69172;52.352;5.006;2024-03-25T03:25:08;100758.63;;;4.36;100.00
79703;BME280;69172;52.352;5.006;2024-03-25T03:27:35;100752.31;;;4.31;100.00
79703;BME280;69172;52.352;5.006;2024-03-25T03:30:00;100756.63;;;4.32;100.00
79703;BME280;69172;52.352;5.006;2024-03-25T03:32:26;100752.31;;;4.31;100.00
79703;BME280;69172;52.352;5.006;2024-03-25T03:34:51;100754.75;;;4.29;100.00
79703;BME280;69172;52.352;5.006;2024-03-25T03:37:17;100757.03;;;4.26;100.00
79703;BME280;69172;52.352;5.006;2024-03-25T03:39:42;100763.78;;;4.26;100.00
79703;BME280;69172;52.352;5.006;2024-03-25T03:42:07;100762.25;;;4.28;100.00
79703;BME280;69172;52.352;5.006;2024-03-25T03:44:34;100754.13;;;4.21;100.00
79703;BME280;69172;52.352;5.006;2024-03-25T03:46:59;100759.84;;;4.19;100.00
79703;BME280;69172;52.352;5.006;2024-03-25T03:49:25;100757.72;;;4.13;100.00
79703;BME280;69172;52.352;5.006;2024-03-25T03:51:50;100753.91;;;4.08;100.00
79703;BME280;69172;52.352;5.006;2024-03-25T03:54:15;100747.72;;;4.05;100.00
79703;BME280;69172;52.352;5.006;2024-03-25T03:56:41;100747.59;;;4.03;100.00
79703;BME280;69172;52.352;5.006;2024-03-25T03:59:06;100740.25;;;3.96;100.00
79703;BME280;69172;52.352;5.006;2024-03-25T04:01:31;100744.09;;;3.91;100.00
79703;BME280;69172;52.352;5.006;2024-03-25T04:03:57;100737.84;;;3.88;100.00
79703;BME280;69172;52.352;5.006;2024-03-25T04:06:22;100735.31;;;3.88;100.00
79703;BME280;69172;52.352;5.006;2024-03-25T04:08:47;100742.03;;;3.87;100.00
79703;BME280;69172;52.352;5.006;2024-03-25T04:11:13;100742.16;;;3.89;100.00
79703;BME280;69172;52.352;5.006;2024-03-25T04:13:38;100744.09;;;3.81;100.00
79703;BME280;69172;52.352;5.006;2024-03-25T04:16:05;100740.00;;;3.83;100.00
79703;BME280;69172;52.352;5.006;2024-03-25T04:18:32;100748.94;;;3.78;100.00
79703;BME280;69172;52.352;5.006;2024-03-25T04:21:03;100749.72;;;3.77;100.00
79703;BME280;69172;52.352;5.006;2024-03-25T04:23:29;100756.94;;;3.73;100.00
79703;BME280;69172;52.352;5.006;2024-03-25T04:25:54;100751.38;;;3.77;100.00
79703;BME280;69172;52.352;5.006;2024-03-25T04:28:20;100745.53;;;3.78;100.00
79703;BME280;69172;52.352;5.006;2024-03-25T04:30:53;100745.88;;;3.82;100.00
79703;BME280;69172;52.352;5.006;2024-03-25T04:33:19;100752.50;;;3.80;100.00
79703;BME280;69172;52.352;5.006;2024-03-25T04:35:46;100751.06;;;3.84;100.00
79703;BME280;69172;52.352;5.006;2024-03-25T04:38:12;100751.06;;;3.84;100.00
79703;BME280;69172;52.352;5.006;2024-03-25T04:40:38;100751.63;;;3.80;100.00
79703;BME280;69172;52.352;5.006;2024-03-25T04:43:04;100748.81;;;3.77;100.00
79703;BME280;69172;52.352;5.006;2024-03-25T04:45:30;100750.88;;;3.71;100.00
79703;BME280;69172;52.352;5.006;2024-03-25T04:47:55;100758.25;;;3.68;100.00
79703;BME280;69172;52.352;5.006;2024-03-25T04:50:21;100760.41;;;3.63;100.00
79703;BME280;69172;52.352;5.006;2024-03-25T04:52:46;100761.06;;;3.60;100.00
79703;BME280;69172;52.352;5.006;2024-03-25T04:55:12;100755.09;;;3.60;100.00
79703;BME280;69172;52.352;5.006;2024-03-25T04:57:37;100759.81;;;3.55;100.00
79703;BME280;69172;52.352;5.006;2024-03-25T05:00:03;100754.72;;;3.55;100.00
79703;BME280;69172;52.352;5.006;2024-03-25T05:02:29;100757.13;;;3.54;100.00
79703;BME280;69172;52.352;5.006;2024-03-25T05:04:54;100757.41;;;3.47;100.00
79703;BME280;69172;52.352;5.006;2024-03-25T05:07:19;100759.03;;;3.46;100.00
79703;BME280;69172;52.352;5.006;2024-03-25T05:09:45;100762.47;;;3.47;100.00
79703;BME280;69172;52.352;5.006;2024-03-25T05:12:10;100756.75;;;3.49;100.00
79703;BME280;69172;52.352;5.006;2024-03-25T05:14:36;100756.00;;;3.50;100.00
79703;BME280;69172;52.352;5.006;2024-03-25T05:17:01;100771.63;;;3.55;100.00
79703;BME280;69172;52.352;5.006;2024-03-25T05:19:28;100763.63;;;3.50;100.00
79703;BME280;69172;52.352;5.006;2024-03-25T05:21:56;100772.38;;;3.54;100.00
79703;BME280;69172;52.352;5.006;2024-03-25T05:24:21;100773.81;;;3.50;100.00
79703;BME280;69172;52.352;5.006;2024-03-25T05:26:47;100773.00;;;3.51;100.00
79703;BME280;69172;52.352;5.006;2024-03-25T05:29:13;100773.66;;;3.49;100.00
79703;BME280;69172;52.352;5.006;2024-03-25T05:31:39;100778.72;;;3.59;100.00
79703;BME280;69172;52.352;5.006;2024-03-25T05:34:04;100775.06;;;3.55;100.00
79703;BME280;69172;52.352;5.006;2024-03-25T05:36:33;100773.41;;;3.56;100.00
79703;BME280;69172;52.352;5.006;2024-03-25T05:39:00;100765.63;;;3.54;100.00
79703;BME280;69172;52.352;5.006;2024-03-25T05:41:25;100770.22;;;3.58;100.00
79703;BME280;69172;52.352;5.006;2024-03-25T05:43:51;100768.34;;;3.56;100.00
79703;BME280;69172;52.352;5.006;2024-03-25T05:46:16;100774.03;;;3.53;100.00
79703;BME280;69172;52.352;5.006;2024-03-25T05:48:41;100754.56;;;3.54;100.00
79703;BME280;69172;52.352;5.006;2024-03-25T05:51:07;100763.09;;;3.54;100.00
79703;BME280;69172;52.352;5.006;2024-03-25T05:53:33;100758.38;;;3.59;100.00
79703;BME280;69172;52.352;5.006;2024-03-25T05:55:59;100763.97;;;3.65;100.00
79703;BME280;69172;52.352;5.006;2024-03-25T05:58:25;100763.72;;;3.72;100.00
79703;BME280;69172;52.352;5.006;2024-03-25T06:00:51;100760.00;;;3.79;100.00
79703;BME280;69172;52.352;5.006;2024-03-25T06:03:18;100758.44;;;3.91;100.00
79703;BME280;69172;52.352;5.006;2024-03-25T06:05:43;100752.44;;;4.00;100.00
79703;BME280;69172;52.352;5.006;2024-03-25T06:08:09;100754.72;;;4.07;100.00
79703;BME280;69172;52.352;5.006;2024-03-25T06:10:43;100755.16;;;4.13;100.00
79703;BME280;69172;52.352;5.006;2024-03-25T06:13:09;100748.78;;;4.18;100.00
79703;BME280;69172;52.352;5.006;2024-03-25T06:15:37;100743.84;;;4.20;100.00
79703;BME280;69172;52.352;5.006;2024-03-25T06:18:02;100744.72;;;4.20;100.00
79703;BME280;69172;52.352;5.006;2024-03-25T06:20:29;100744.31;;;4.26;100.00
79703;BME280;69172;52.352;5.006;2024-03-25T06:22:55;100741.81;;;4.38;100.00
79703;BME280;69172;52.352;5.006;2024-03-25T06:25:22;100745.16;;;4.37;100.00
79703;BME280;69172;52.352;5.006;2024-03-25T06:27:47;100739.69;;;4.32;100.00
79703;BME280;69172;52.352;5.006;2024-03-25T06:30:20;100744.66;;;4.31;100.00
79703;BME280;69172;52.352;5.006;2024-03-25T06:33:05;100741.13;;;4.29;100.00
79703;BME280;69172;52.352;5.006;2024-03-25T06:35:48;100746.88;;;4.26;100.00
79703;BME280;69172;52.352;5.006;2024-03-25T06:38:14;100745.22;;;4.27;100.00
79703;BME280;69172;52.352;5.006;2024-03-25T06:40:39;100746.97;;;4.28;100.00
79703;BME280;69172;52.352;5.006;2024-03-25T06:43:05;100743.91;;;4.32;100.00
79703;BME280;69172;52.352;5.006;2024-03-25T06:45:31;100743.00;;;4.31;100.00
79703;BME280;69172;52.352;5.006;2024-03-25T06:47:58;100739.41;;;4.39;100.00
79703;BME280;69172;52.352;5.006;2024-03-25T06:50:24;100741.41;;;4.43;100.00
79703;BME280;69172;52.352;5.006;2024-03-25T06:52:49;100735.81;;;4.47;100.00
79703;BME280;69172;52.352;5.006;2024-03-25T06:55:15;100737.03;;;4.52;100.00
79703;BME280;69172;52.352;5.006;2024-03-25T06:57:41;100735.06;;;4.60;100.00
79703;BME280;69172;52.352;5.006;2024-03-25T07:00:06;100732.53;;;4.60;100.00
79703;BME280;69172;52.352;5.006;2024-03-25T07:02:38;100729.31;;;4.62;100.00
79703;BME280;69172;52.352;5.006;2024-03-25T07:05:03;100727.16;;;4.67;100.00
79703;BME280;69172;52.352;5.006;2024-03-25T07:07:29;100733.34;;;4.70;100.00
79703;BME280;69172;52.352;5.006;2024-03-25T07:09:54;100729.53;;;4.75;100.00
79703;BME280;69172;52.352;5.006;2024-03-25T07:12:20;100739.91;;;4.78;100.00
79703;BME280;69172;52.352;5.006;2024-03-25T07:14:45;100731.75;;;4.82;100.00
79703;BME280;69172;52.352;5.006;2024-03-25T07:17:10;100735.88;;;4.92;100.00
79703;BME280;69172;52.352;5.006;2024-03-25T07:19:36;100743.09;;;4.98;100.00
79703;BME280;69172;52.352;5.006;2024-03-25T07:22:01;100746.25;;;5.05;100.00
79703;BME280;69172;52.352;5.006;2024-03-25T07:24:26;100742.59;;;5.13;100.00
79703;BME280;69172;52.352;5.006;2024-03-25T07:26:53;100740.63;;;5.21;100.00
79703;BME280;69172;52.352;5.006;2024-03-25T07:29:18;100739.75;;;5.32;100.00
79703;BME280;69172;52.352;5.006;2024-03-25T07:31:45;100737.09;;;5.42;100.00
79703;BME280;69172;52.352;5.006;2024-03-25T07:34:10;100747.44;;;5.55;100.00
79703;BME280;69172;52.352;5.006;2024-03-25T07:36:43;100747.44;;;5.67;100.00
79703;BME280;69172;52.352;5.006;2024-03-25T07:39:09;100749.78;;;5.75;100.00
79703;BME280;69172;52.352;5.006;2024-03-25T07:41:37;100743.56;;;5.83;100.00
79703;BME280;69172;52.352;5.006;2024-03-25T07:44:02;100747.91;;;5.96;100.00
79703;BME280;69172;52.352;5.006;2024-03-25T07:46:30;100744.47;;;6.07;100.00
79703;BME280;69172;52.352;5.006;2024-03-25T07:48:55;100746.44;;;6.23;100.00
79703;BME280;69172;52.352;5.006;2024-03-25T07:51:20;100749.13;;;6.36;100.00
79703;BME280;69172;52.352;5.006;2024-03-25T07:53:46;100750.72;;;6.47;100.00
79703;BME280;69172;52.352;5.006;2024-03-25T07:56:11;100756.25;;;6.53;100.00
79703;BME280;69172;52.352;5.006;2024-03-25T07:58:36;100754.34;;;6.62;100.00
79703;BME280;69172;52.352;5.006;2024-03-25T08:01:02;100748.09;;;6.70;100.00
79703;BME280;69172;52.352;5.006;2024-03-25T08:03:27;100751.19;;;6.78;100.00
79703;BME280;69172;52.352;5.006;2024-03-25T08:05:53;100752.72;;;6.87;100.00
79703;BME280;69172;52.352;5.006;2024-03-25T08:08:18;100761.81;;;6.95;100.00
79703;BME280;69172;52.352;5.006;2024-03-25T08:10:45;100753.97;;;7.05;100.00
79703;BME280;69172;52.352;5.006;2024-03-25T08:13:10;100756.81;;;7.10;100.00
79703;BME280;69172;52.352;5.006;2024-03-25T08:15:35;100761.25;;;7.12;100.00
79703;BME280;69172;52.352;5.006;2024-03-25T08:18:03;100762.13;;;7.13;100.00
79703;BME280;69172;52.352;5.006;2024-03-25T08:20:29;100774.94;;;7.13;100.00
79703;BME280;69172;52.352;5.006;2024-03-25T08:22:55;100770.72;;;7.13;100.00
79703;BME280;69172;52.352;5.006;2024-03-25T08:25:20;100772.50;;;7.14;100.00
79703;BME280;69172;52.352;5.006;2024-03-25T08:27:45;100769.81;;;7.13;100.00
79703;BME280;69172;52.352;5.006;2024-03-25T08:30:11;100782.34;;;7.22;100.00
79703;BME280;69172;52.352;5.006;2024-03-25T08:32:36;100772.13;;;7.22;100.00
79703;BME280;69172;52.352;5.006;2024-03-25T08:35:03;100781.97;;;7.29;100.00
79703;BME280;69172;52.352;5.006;2024-03-25T08:37:29;100778.41;;;7.27;100.00
79703;BME280;69172;52.352;5.006;2024-03-25T08:39:54;100763.06;;;7.27;100.00
79703;BME280;69172;52.352;5.006;2024-03-25T08:42:20;100764.25;;;7.32;100.00
79703;BME280;69172;52.352;5.006;2024-03-25T08:44:46;100753.88;;;7.42;100.00
79703;BME280;69172;52.352;5.006;2024-03-25T08:47:12;100759.09;;;7.43;100.00
79703;BME280;69172;52.352;5.006;2024-03-25T08:49:37;100756.34;;;7.53;100.00
79703;BME280;69172;52.352;5.006;2024-03-25T08:52:02;100760.28;;;7.61;100.00
79703;BME280;69172;52.352;5.006;2024-03-25T08:54:30;100764.91;;;7.54;100.00
79703;BME280;69172;52.352;5.006;2024-03-25T08:56:55;100760.97;;;7.59;100.00
79703;BME280;69172;52.352;5.006;2024-03-25T08:59:21;100748.09;;;7.70;100.00
79703;BME280;69172;52.352;5.006;2024-03-25T09:01:46;100755.09;;;7.73;100.00
79703;BME280;69172;52.352;5.006;2024-03-25T09:04:12;100754.59;;;7.65;100.00
79703;BME280;69172;52.352;5.006;2024-03-25T09:06:38;100747.59;;;7.89;100.00
79703;BME280;69172;52.352;5.006;2024-03-25T09:09:03;100744.63;;;8.22;100.00
79703;BME280;69172;52.352;5.006;2024-03-25T09:11:51;100746.78;;;8.43;100.00
79703;BME280;69172;52.352;5.006;2024-03-25T09:14:16;100739.63;;;8.65;100.00
79703;BME280;69172;52.352;5.006;2024-03-25T09:16:42;100738.47;;;8.87;100.00
79703;BME280;69172;52.352;5.006;2024-03-25T09:19:07;100736.75;;;9.01;100.00
79703;BME280;69172;52.352;5.006;2024-03-25T09:21:32;100737.31;;;9.10;98.12
79703;BME280;69172;52.352;5.006;2024-03-25T09:23:58;100733.22;;;9.14;95.83
79703;BME280;69172;52.352;5.006;2024-03-25T09:26:24;100725.28;;;9.24;98.03
79703;BME280;69172;52.352;5.006;2024-03-25T09:28:49;100731.75;;;8.89;97.94
79703;BME280;69172;52.352;5.006;2024-03-25T09:31:14;100726.00;;;9.21;97.62
79703;BME280;69172;52.352;5.006;2024-03-25T09:33:40;100716.81;;;9.39;94.98
79703;BME280;69172;52.352;5.006;2024-03-25T09:36:05;100730.16;;;9.63;95.41
79703;BME280;69172;52.352;5.006;2024-03-25T09:38:31;100721.38;;;9.89;92.78
79703;BME280;69172;52.352;5.006;2024-03-25T09:40:57;100721.31;;;10.03;92.90
79703;BME280;69172;52.352;5.006;2024-03-25T09:43:35;100717.50;;;10.26;90.62
79703;BME280;69172;52.352;5.006;2024-03-25T09:46:04;100711.97;;;10.35;89.67
79703;BME280;69172;52.352;5.006;2024-03-25T09:48:31;100715.69;;;10.56;89.46
79703;BME280;69172;52.352;5.006;2024-03-25T09:50:57;100710.88;;;10.78;88.09
79703;BME280;69172;52.352;5.006;2024-03-25T09:53:23;100714.91;;;10.89;85.78
79703;BME280;69172;52.352;5.006;2024-03-25T09:55:49;100709.97;;;10.94;83.98
79703;BME280;69172;52.352;5.006;2024-03-25T09:58:15;100707.94;;;10.09;80.48
79703;BME280;69172;52.352;5.006;2024-03-25T10:00:42;100709.34;;;9.58;85.86
79703;BME280;69172;52.352;5.006;2024-03-25T10:03:08;100702.50;;;9.74;86.24
79703;BME280;69172;52.352;5.006;2024-03-25T10:05:34;100696.34;;;10.01;84.47
79703;BME280;69172;52.352;5.006;2024-03-25T10:07:59;100694.38;;;9.66;87.79
79703;BME280;69172;52.352;5.006;2024-03-25T10:10:25;100694.31;;;9.95;87.29
79703;BME280;69172;52.352;5.006;2024-03-25T10:12:50;100694.19;;;10.23;86.96
79703;BME280;69172;52.352;5.006;2024-03-25T10:15:16;100684.88;;;10.41;84.63
79703;BME280;69172;52.352;5.006;2024-03-25T10:17:43;100685.88;;;10.59;85.05
79703;BME280;69172;52.352;5.006;2024-03-25T10:20:18;100686.09;;;10.96;84.64
79703;BME280;69172;52.352;5.006;2024-03-25T10:22:44;100680.31;;;11.00;83.95
79703;BME280;69172;52.352;5.006;2024-03-25T10:25:21;100679.59;;;11.03;84.65
79703;BME280;69172;52.352;5.006;2024-03-25T10:27:58;100683.34;;;10.93;85.06
79703;BME280;69172;52.352;5.006;2024-03-25T10:30:25;100675.72;;;11.11;82.49
79703;BME280;69172;52.352;5.006;2024-03-25T10:33:06;100664.13;;;11.36;77.74
79703;BME280;69172;52.352;5.006;2024-03-25T10:35:33;100667.84;;;11.25;80.63
79703;BME280;69172;52.352;5.006;2024-03-25T10:38:09;100669.94;;;11.32;81.02
79703;BME280;69172;52.352;5.006;2024-03-25T10:40:39;100660.97;;;11.42;79.21
79703;BME280;69172;52.352;5.006;2024-03-25T10:43:09;100669.38;;;11.56;78.72
79703;BME280;69172;52.352;5.006;2024-03-25T10:45:49;100661.19;;;11.64;75.45
79703;BME280;69172;52.352;5.006;2024-03-25T10:48:17;100653.38;;;11.79;75.92
79703;BME280;69172;52.352;5.006;2024-03-25T10:50:45;100649.44;;;11.52;79.13
79703;BME280;69172;52.352;5.006;2024-03-25T10:53:14;100646.22;;;11.73;76.61
79703;BME280;69172;52.352;5.006;2024-03-25T10:55:46;100646.22;;;11.73;78.23
79703;BME280;69172;52.352;5.006;2024-03-25T10:58:15;100647.38;;;11.80;76.45
79703;BME280;69172;52.352;5.006;2024-03-25T11:00:42;100641.97;;;12.11;75.60
79703;BME280;69172;52.352;5.006;2024-03-25T11:03:07;100642.66;;;12.26;74.63
79703;BME280;69172;52.352;5.006;2024-03-25T11:05:34;100639.56;;;12.33;74.69
79703;BME280;69172;52.352;5.006;2024-03-25T11:08:13;100627.22;;;12.45;73.71
79703;BME280;69172;52.352;5.006;2024-03-25T11:10:43;100628.72;;;12.59;72.89
79703;BME280;69172;52.352;5.006;2024-03-25T11:15:48;100625.44;;;12.82;68.89
79703;BME280;69172;52.352;5.006;2024-03-25T11:18:18;100619.09;;;12.95;67.87
79703;BME280;69172;52.352;5.006;2024-03-25T11:21:00;100620.34;;;12.84;65.22
79703;BME280;69172;52.352;5.006;2024-03-25T11:23:25;100605.91;;;12.89;66.60
79703;BME280;69172;52.352;5.006;2024-03-25T11:25:55;100606.31;;;12.98;66.55
79703;BME280;69172;52.352;5.006;2024-03-25T11:28:27;100600.84;;;13.09;64.37
79703;BME280;69172;52.352;5.006;2024-03-25T11:30:52;100606.50;;;13.02;62.12
79703;BME280;69172;52.352;5.006;2024-03-25T11:33:18;100601.59;;;12.88;62.51
79703;BME280;69172;52.352;5.006;2024-03-25T11:35:43;100595.16;;;12.78;64.78
79703;BME280;69172;52.352;5.006;2024-03-25T11:38:08;100592.69;;;12.81;62.14
79703;BME280;69172;52.352;5.006;2024-03-25T11:40:35;100590.75;;;12.57;62.99
79703;BME280;69172;52.352;5.006;2024-03-25T11:43:00;100584.41;;;12.69;63.23
79703;BME280;69172;52.352;5.006;2024-03-25T11:45:26;100578.72;;;12.97;61.78
79703;BME280;69172;52.352;5.006;2024-03-25T11:47:52;100578.22;;;13.05;61.18
79703;BME280;69172;52.352;5.006;2024-03-25T11:50:18;100577.59;;;13.09;57.50
79703;BME280;69172;52.352;5.006;2024-03-25T11:52:45;100577.28;;;13.23;56.83
79703;BME280;69172;52.352;5.006;2024-03-25T11:55:10;100569.91;;;13.11;58.34
79703;BME280;69172;52.352;5.006;2024-03-25T11:57:40;100567.50;;;13.16;59.17
79703;BME280;69172;52.352;5.006;2024-03-25T12:00:07;100563.63;;;13.27;59.01
79703;BME280;69172;52.352;5.006;2024-03-25T12:02:36;100559.44;;;13.29;55.98
79703;BME280;69172;52.352;5.006;2024-03-25T12:05:03;100557.78;;;13.31;57.32
79703;BME280;69172;52.352;5.006;2024-03-25T12:07:30;100557.97;;;13.35;56.57
79703;BME280;69172;52.352;5.006;2024-03-25T12:09:56;100554.41;;;13.11;56.97
79703;BME280;69172;52.352;5.006;2024-03-25T12:12:41;100547.81;;;13.18;56.19
79703;BME280;69172;52.352;5.006;2024-03-25T12:15:09;100549.16;;;13.30;57.49
79703;BME280;69172;52.352;5.006;2024-03-25T12:17:34;100546.81;;;13.36;54.83
79703;BME280;69172;52.352;5.006;2024-03-25T12:20:04;100538.53;;;13.23;53.97
79703;BME280;69172;52.352;5.006;2024-03-25T12:22:33;100531.03;;;13.08;52.11
79703;BME280;69172;52.352;5.006;2024-03-25T12:25:00;100543.06;;;11.89;55.91
79703;BME280;69172;52.352;5.006;2024-03-25T12:27:28;100534.66;;;12.13;56.86
79703;BME280;69172;52.352;5.006;2024-03-25T12:30:01;100526.03;;;12.31;57.29
79703;BME280;69172;52.352;5.006;2024-03-25T12:32:44;100523.25;;;12.46;56.31
79703;BME280;69172;52.352;5.006;2024-03-25T12:35:10;100527.03;;;12.54;55.47
79703;BME280;69172;52.352;5.006;2024-03-25T12:37:39;100537.63;;;12.81;53.06
79703;BME280;69172;52.352;5.006;2024-03-25T12:40:07;100536.22;;;12.89;51.00
79703;BME280;69172;52.352;5.006;2024-03-25T12:42:34;100536.72;;;12.80;52.08
79703;BME280;69172;52.352;5.006;2024-03-25T12:44:59;100531.06;;;12.68;53.07
79703;BME280;69172;52.352;5.006;2024-03-25T12:47:25;100522.84;;;12.77;53.11
79703;BME280;69172;52.352;5.006;2024-03-25T12:49:50;100510.88;;;12.79;52.11